Time;durP1;ratioP1;P1;durP2;ratioP2;P2;SDS_P1;SDS_P2;PMS_P1;PMS_P2;Temp;Humidity;BMP_temperature;BMP_pressure;BME280_temperature;BME280_humidity;BME280_pressure;Samples;Min_cycle;Max_cycle;Signal;HPM_P1;HPM_P2
2021/03/20 00:00:31;;;;;;;;;;;6.00;80.00;;;;;;4989993;28;20357;-58
2021/03/20 00:02:56;;;;;;;;;;;6.00;80.00;;;;;;4991710;28;20014;-59
2021/03/20 00:05:22;;;;;;;;;;;6.00;80.10;;;;;;5005437;28;20001;-59
2021/03/20 00:07:48;;;;;;;;;;;6.00;80.00;;;;;;5004998;28;19914;-59
2021/03/20 00:10:14;;;;;;;;;;;6.00;80.10;;;;;;4987716;28;20007;-56
2021/03/20 00:12:39;;;;;;;;;;;5.90;80.00;;;;;;5004805;28;19917;-57
2021/03/20 00:15:06;;;;;;;;;;;5.90;80.00;;;;;;4991456;28;19917;-57
2021/03/20 00:17:32;;;;;;;;;;;5.90;80.10;;;;;;4990291;28;19914;-59
2021/03/20 00:19:57;;;;;;;;;;;5.90;80.20;;;;;;4989662;28;20316;-58
2021/03/20 00:22:22;;;;;;;;;;;5.90;80.10;;;;;;5000177;28;19957;-57
2021/03/20 00:24:48;;;;;;;;;;;5.90;80.10;;;;;;4987459;28;19921;-56
2021/03/20 00:27:13;;;;;;;;;;;5.90;80.10;;;;;;4991149;28;19914;-59
2021/03/20 00:29:39;;;;;;;;;;;5.80;80.10;;;;;;5005819;28;20357;-58
2021/03/20 00:32:04;;;;;;;;;;;5.80;80.10;;;;;;4989623;28;19910;-57
2021/03/20 00:34:30;;;;;;;;;;;5.80;80.10;;;;;;4990868;28;19960;-57
2021/03/20 00:36:55;;;;;;;;;;;5.80;80.00;;;;;;4991059;28;19917;-59
2021/03/20 00:39:21;;;;;;;;;;;5.80;80.10;;;;;;4991465;28;19920;-59
2021/03/20 00:41:46;;;;;;;;;;;5.80;80.10;;;;;;4988507;28;20285;-57
2021/03/20 00:44:12;;;;;;;;;;;5.80;80.10;;;;;;4988640;28;20008;-60
2021/03/20 00:46:37;;;;;;;;;;;5.80;80.20;;;;;;4989839;28;20461;-59
2021/03/20 00:49:03;;;;;;;;;;;5.80;80.20;;;;;;4991262;28;19909;-57
2021/03/20 00:51:28;;;;;;;;;;;5.80;80.20;;;;;;4991006;28;19961;-59
2021/03/20 00:53:54;;;;;;;;;;;5.80;80.30;;;;;;4991079;28;19968;-59
2021/03/20 00:56:20;;;;;;;;;;;5.70;80.10;;;;;;4989513;28;19921;-57
2021/03/20 00:58:45;;;;;;;;;;;5.70;80.20;;;;;;5001107;28;19910;-58
2021/03/20 01:01:12;;;;;;;;;;;5.70;80.20;;;;;;4990320;28;19918;-59
2021/03/20 01:03:38;;;;;;;;;;;5.70;80.30;;;;;;4990432;28;19926;-59
2021/03/20 01:06:11;;;;;;;;;;;5.70;80.40;;;;;;5005467;28;19959;-58
2021/03/20 01:08:37;;;;;;;;;;;5.70;80.30;;;;;;5001291;28;19914;-59
2021/03/20 01:11:02;;;;;;;;;;;5.60;80.30;;;;;;4988914;28;19917;-57
2021/03/20 01:13:28;;;;;;;;;;;5.60;80.30;;;;;;4986721;28;20008;-58
2021/03/20 01:15:53;;;;;;;;;;;5.60;80.20;;;;;;4990349;28;19914;-56
2021/03/20 01:18:19;;;;;;;;;;;5.60;80.30;;;;;;4991138;28;19914;-58
2021/03/20 01:20:44;;;;;;;;;;;5.60;80.30;;;;;;5005547;28;20273;-59
2021/03/20 01:23:10;;;;;;;;;;;5.60;80.30;;;;;;5004641;28;19917;-57
2021/03/20 01:25:35;;;;;;;;;;;5.60;80.30;;;;;;5004962;28;19914;-57
2021/03/20 01:28:01;;;;;;;;;;;5.60;80.30;;;;;;4990363;28;19921;-57
2021/03/20 01:30:27;;;;;;;;;;;5.60;80.30;;;;;;5005807;28;20045;-57
2021/03/20 01:32:53;;;;;;;;;;;5.60;80.30;;;;;;5000541;28;20375;-58
2021/03/20 01:35:18;;;;;;;;;;;5.50;80.20;;;;;;5005816;28;19910;-58
2021/03/20 01:37:44;;;;;;;;;;;5.50;80.20;;;;;;4982546;28;20393;-56
2021/03/20 01:40:10;;;;;;;;;;;5.50;80.20;;;;;;5002209;28;20264;-57
2021/03/20 01:42:39;;;;;;;;;;;5.50;80.20;;;;;;4991053;28;19949;-58
2021/03/20 01:45:12;;;;;;;;;;;5.50;80.20;;;;;;4989556;28;20791;-57
2021/03/20 01:47:41;;;;;;;;;;;5.50;80.20;;;;;;4988382;28;20452;-59
2021/03/20 01:50:09;;;;;;;;;;;5.50;80.20;;;;;;5004360;28;19917;-58
2021/03/20 01:52:35;;;;;;;;;;;5.40;80.20;;;;;;5005023;28;19913;-59
2021/03/20 01:55:08;;;;;;;;;;;5.40;80.20;;;;;;5005480;28;19913;-59
2021/03/20 01:57:37;;;;;;;;;;;5.40;80.10;;;;;;5004800;28;19914;-56
2021/03/20 02:00:15;;;;;;;;;;;5.40;80.10;;;;;;4990519;28;19914;-58
2021/03/20 02:02:41;;;;;;;;;;;5.40;80.30;;;;;;4988695;28;19922;-59
2021/03/20 02:05:06;;;;;;;;;;;5.30;80.20;;;;;;5004375;28;19977;-57
2021/03/20 02:07:32;;;;;;;;;;;5.30;80.20;;;;;;5004060;28;19920;-56
2021/03/20 02:09:57;;;;;;;;;;;5.30;80.20;;;;;;4990220;28;19921;-56
2021/03/20 02:12:29;;;;;;;;;;;5.30;80.30;;;;;;5002442;28;20157;-58
2021/03/20 02:15:07;;;;;;;;;;;5.30;80.20;;;;;;5005178;28;19910;-57
2021/03/20 02:17:39;;;;;;;;;;;5.30;80.20;;;;;;5007227;28;19910;-58
2021/03/20 02:20:10;;;;;;;;;;;5.20;80.20;;;;;;5008893;28;19918;-59
2021/03/20 02:22:42;;;;;;;;;;;5.20;80.20;;;;;;4992463;28;20047;-57
2021/03/20 02:25:07;;;;;;;;;;;5.20;80.20;;;;;;4993874;28;20380;-56
2021/03/20 02:27:32;;;;;;;;;;;5.20;80.30;;;;;;4992938;28;19917;-59
2021/03/20 02:30:01;;;;;;;;;;;5.20;80.30;;;;;;4991984;28;19968;-59
2021/03/20 02:32:35;;;;;;;;;;;5.10;80.30;;;;;;4992947;28;20381;-58
2021/03/20 02:35:27;;;;;;;;;;;5.20;80.30;;;;;;5008898;28;20011;-56
2021/03/20 02:38:11;;;;;;;;;;;5.20;80.20;;;;;;4987894;28;19916;-57
2021/03/20 02:40:55;;;;;;;;;;;5.10;80.30;;;;;;4992524;28;19980;-58
2021/03/20 02:43:39;;;;;;;;;;;5.10;80.20;;;;;;5007399;28;20000;-56
2021/03/20 02:46:07;;;;;;;;;;;5.20;80.30;;;;;;4990197;28;19916;-60
2021/03/20 02:48:37;;;;;;;;;;;5.10;80.20;;;;;;4993105;28;20274;-58
2021/03/20 02:51:05;;;;;;;;;;;5.10;80.30;;;;;;5008391;28;19949;-57
2021/03/20 02:53:33;;;;;;;;;;;5.10;80.30;;;;;;5008229;28;19910;-56
2021/03/20 02:55:59;;;;;;;;;;;5.00;80.30;;;;;;4991054;28;19953;-58
2021/03/20 02:58:32;;;;;;;;;;;5.00;80.40;;;;;;4992749;28;19913;-58
2021/03/20 03:00:58;;;;;;;;;;;5.00;80.40;;;;;;4992825;28;19918;-57
2021/03/20 03:03:25;;;;;;;;;;;5.00;80.40;;;;;;5008402;28;20396;-57
2021/03/20 03:05:59;;;;;;;;;;;5.00;80.40;;;;;;4999688;28;19918;-57
2021/03/20 03:08:32;;;;;;;;;;;4.90;80.40;;;;;;5006190;28;19910;-58
2021/03/20 03:11:00;;;;;;;;;;;4.90;80.40;;;;;;5007202;28;20387;-56
2021/03/20 03:13:26;;;;;;;;;;;4.90;80.40;;;;;;5002916;28;19972;-58
2021/03/20 03:15:53;;;;;;;;;;;4.90;80.50;;;;;;5007598;28;19917;-57
2021/03/20 03:18:27;;;;;;;;;;;4.80;80.50;;;;;;5004337;28;19938;-56
2021/03/20 03:20:54;;;;;;;;;;;4.80;80.50;;;;;;5005905;28;19945;-57
2021/03/20 03:23:21;;;;;;;;;;;4.80;80.50;;;;;;5004129;28;19910;-57
2021/03/20 03:25:47;;;;;;;;;;;4.80;80.50;;;;;;5005914;28;20279;-57
2021/03/20 03:28:13;;;;;;;;;;;4.80;81.10;;;;;;5005075;28;19910;-60
2021/03/20 03:30:38;;;;;;;;;;;4.80;80.40;;;;;;5007015;28;20009;-59
2021/03/20 03:33:08;;;;;;;;;;;4.80;80.40;;;;;;5003387;28;20489;-59
2021/03/20 03:35:37;;;;;;;;;;;4.80;80.50;;;;;;4991283;28;19917;-57
2021/03/20 03:38:22;;;;;;;;;;;4.70;80.40;;;;;;5000655;28;19910;-58
2021/03/20 03:40:52;;;;;;;;;;;4.70;80.40;;;;;;4992083;28;19926;-59
2021/03/20 03:43:18;;;;;;;;;;;4.70;80.40;;;;;;4999886;28;20321;-59
2021/03/20 03:45:43;;;;;;;;;;;4.70;80.50;;;;;;4990762;28;19910;-56
2021/03/20 03:48:09;;;;;;;;;;;4.70;80.50;;;;;;5005535;28;19913;-58
2021/03/20 03:50:35;;;;;;;;;;;4.70;80.50;;;;;;4992194;28;19913;-58
2021/03/20 03:53:03;;;;;;;;;;;4.70;80.50;;;;;;5007414;28;20343;-59
2021/03/20 03:55:29;;;;;;;;;;;4.60;80.40;;;;;;4992090;28;20359;-57
2021/03/20 03:57:54;;;;;;;;;;;4.60;80.40;;;;;;4991501;28;20008;-59
2021/03/20 04:00:23;;;;;;;;;;;4.60;80.50;;;;;;4990519;28;19913;-58
2021/03/20 04:03:11;;;;;;;;;;;4.60;80.50;;;;;;5006250;28;19925;-59
2021/03/20 04:05:55;;;;;;;;;;;4.60;80.50;;;;;;5003414;28;20379;-58
2021/03/20 04:08:31;;;;;;;;;;;4.50;81.20;;;;;;4991420;28;20286;-59
2021/03/20 04:10:57;;;;;;;;;;;4.50;80.60;;;;;;4999288;28;20348;-59
2021/03/20 04:13:28;;;;;;;;;;;4.50;80.50;;;;;;4997543;28;19922;-58
2021/03/20 04:15:57;;;;;;;;;;;4.60;80.60;;;;;;4990566;28;19913;-59
2021/03/20 04:18:28;;;;;;;;;;;4.50;80.50;;;;;;4991791;28;19913;-59
2021/03/20 04:20:55;;;;;;;;;;;4.50;80.50;;;;;;4996890;28;19918;-58
2021/03/20 04:23:22;;;;;;;;;;;4.50;80.60;;;;;;5004336;28;19913;-56
2021/03/20 04:25:59;;;;;;;;;;;4.50;80.70;;;;;;5005243;28;19921;-59
2021/03/20 04:28:40;;;;;;;;;;;4.40;80.60;;;;;;5005751;28;19913;-56
2021/03/20 04:31:15;;;;;;;;;;;4.40;80.60;;;;;;5006046;28;19920;-57
2021/03/20 04:34:06;;;;;;;;;;;4.40;81.30;;;;;;4998738;28;19914;-58
2021/03/20 04:36:35;;;;;;;;;;;4.40;80.60;;;;;;4988104;28;19914;-56
2021/03/20 04:39:00;;;;;;;;;;;4.40;80.60;;;;;;5005308;28;19910;-58
2021/03/20 04:41:25;;;;;;;;;;;4.40;80.80;;;;;;4999643;28;20276;-59
2021/03/20 04:43:51;;;;;;;;;;;4.40;80.70;;;;;;5006580;28;19917;-59
2021/03/20 04:46:18;;;;;;;;;;;4.40;80.60;;;;;;4990572;28;19973;-58
2021/03/20 04:48:44;;;;;;;;;;;4.30;80.70;;;;;;4991153;28;19918;-57
2021/03/20 04:51:25;;;;;;;;;;;4.30;80.80;;;;;;5000105;28;19910;-57
2021/03/20 04:53:56;;;;;;;;;;;4.30;80.80;;;;;;4990332;28;19909;-59
2021/03/20 04:56:21;;;;;;;;;;;4.30;80.80;;;;;;5005893;28;19941;-58
2021/03/20 04:58:50;;;;;;;;;;;4.30;80.70;;;;;;4990981;28;19914;-59
2021/03/20 05:01:19;;;;;;;;;;;4.30;80.70;;;;;;4990764;28;19918;-58
2021/03/20 05:03:48;;;;;;;;;;;4.20;80.60;;;;;;4990585;28;19922;-60
2021/03/20 05:06:14;;;;;;;;;;;4.20;80.60;;;;;;4987986;28;20427;-57
2021/03/20 05:08:47;;;;;;;;;;;4.30;80.60;;;;;;5004255;28;19910;-59
2021/03/20 05:11:12;;;;;;;;;;;4.20;80.70;;;;;;4989192;28;19914;-58
2021/03/20 05:13:40;;;;;;;;;;;4.20;80.70;;;;;;4990858;28;20028;-58
2021/03/20 05:16:25;;;;;;;;;;;4.20;80.80;;;;;;5005530;28;19917;-56
2021/03/20 05:18:51;;;;;;;;;;;4.20;80.60;;;;;;4987635;28;20024;-59
2021/03/20 05:21:18;;;;;;;;;;;4.20;80.70;;;;;;4990774;28;20016;-58
2021/03/20 05:23:43;;;;;;;;;;;4.20;80.60;;;;;;4990910;28;20336;-60
2021/03/20 05:26:09;;;;;;;;;;;4.20;80.50;;;;;;4990737;28;19955;-59
2021/03/20 05:28:34;;;;;;;;;;;4.20;80.60;;;;;;4991101;28;19909;-59
2021/03/20 05:31:01;;;;;;;;;;;4.20;80.60;;;;;;4984717;28;20693;-59
2021/03/20 05:33:26;;;;;;;;;;;4.20;80.40;;;;;;5003903;28;20392;-59
2021/03/20 05:35:51;;;;;;;;;;;4.20;80.40;;;;;;5005839;28;19910;-60
2021/03/20 05:38:17;;;;;;;;;;;4.20;80.40;;;;;;4990247;28;19922;-58
2021/03/20 05:40:42;;;;;;;;;;;4.20;80.40;;;;;;4990463;28;19998;-58
2021/03/20 05:43:23;;;;;;;;;;;4.10;80.40;;;;;;5005024;28;20682;-58
2021/03/20 05:46:12;;;;;;;;;;;4.10;80.40;;;;;;4988755;28;19937;-56
2021/03/20 05:48:38;;;;;;;;;;;4.10;80.60;;;;;;4987799;28;19944;-57
2021/03/20 05:51:12;;;;;;;;;;;4.10;80.60;;;;;;5004240;28;20332;-57
2021/03/20 05:53:56;;;;;;;;;;;4.20;80.40;;;;;;4994577;28;19914;-59
2021/03/20 05:56:37;;;;;;;;;;;4.20;80.30;;;;;;4998924;28;19949;-58
2021/03/20 05:59:08;;;;;;;;;;;4.20;80.20;;;;;;4992807;28;20250;-59
2021/03/20 06:01:34;;;;;;;;;;;4.20;80.40;;;;;;4993943;28;19918;-57
2021/03/20 06:04:15;;;;;;;;;;;4.10;80.30;;;;;;4994197;28;19932;-59
2021/03/20 06:06:58;;;;;;;;;;;4.10;80.30;;;;;;4994601;28;19910;-57
2021/03/20 06:09:43;;;;;;;;;;;4.10;80.10;;;;;;4991808;28;19913;-60
2021/03/20 06:12:27;;;;;;;;;;;4.20;80.20;;;;;;5002793;28;19914;-59
2021/03/20 06:15:08;;;;;;;;;;;4.20;80.20;;;;;;4985862;28;19917;-58
2021/03/20 06:17:50;;;;;;;;;;;4.20;80.10;;;;;;4990849;28;19993;-57
2021/03/20 06:20:27;;;;;;;;;;;4.10;80.20;;;;;;5003375;28;19914;-57
2021/03/20 06:22:56;;;;;;;;;;;4.20;80.20;;;;;;4981891;28;19913;-59
2021/03/20 06:25:25;;;;;;;;;;;4.10;80.10;;;;;;5004590;28;19995;-58
2021/03/20 06:27:51;;;;;;;;;;;4.20;80.80;;;;;;4996613;28;19917;-59
2021/03/20 06:30:31;;;;;;;;;;;4.20;80.10;;;;;;4993237;28;20385;-58
2021/03/20 06:33:01;;;;;;;;;;;4.20;80.00;;;;;;5002068;28;19917;-60
2021/03/20 06:35:27;;;;;;;;;;;4.10;80.00;;;;;;5000207;28;19914;-59
2021/03/20 06:37:55;;;;;;;;;;;4.10;80.10;;;;;;5007211;28;19917;-56
2021/03/20 06:40:23;;;;;;;;;;;4.10;80.10;;;;;;4993362;28;20384;-58
2021/03/20 06:42:49;;;;;;;;;;;4.10;80.10;;;;;;5008400;28;20301;-57
2021/03/20 06:45:14;;;;;;;;;;;4.20;80.10;;;;;;5008201;28;19910;-60
2021/03/20 06:47:40;;;;;;;;;;;4.10;80.00;;;;;;4988530;28;20040;-56
2021/03/20 06:50:08;;;;;;;;;;;4.10;80.00;;;;;;5006789;28;19932;-59
2021/03/20 06:52:34;;;;;;;;;;;4.10;79.90;;;;;;4992500;28;19917;-56
2021/03/20 06:55:01;;;;;;;;;;;4.20;80.00;;;;;;5008446;28;19913;-58
2021/03/20 06:57:27;;;;;;;;;;;4.10;79.90;;;;;;5007902;28;19910;-58
2021/03/20 06:59:55;;;;;;;;;;;4.20;79.90;;;;;;5007732;28;20192;-59
2021/03/20 07:02:29;;;;;;;;;;;4.20;79.90;;;;;;5005692;28;19913;-56
2021/03/20 07:05:00;;;;;;;;;;;4.20;79.80;;;;;;5000146;28;19910;-57
2021/03/20 07:07:25;;;;;;;;;;;4.20;79.80;;;;;;4992636;28;20080;-55
2021/03/20 07:09:51;;;;;;;;;;;4.20;79.80;;;;;;4992657;28;20020;-55
2021/03/20 07:12:18;;;;;;;;;;;4.20;79.80;;;;;;5007554;28;20139;-57
2021/03/20 07:14:44;;;;;;;;;;;4.20;79.70;;;;;;4991457;28;19910;-57
2021/03/20 07:17:15;;;;;;;;;;;4.20;79.80;;;;;;4991144;28;20348;-58
2021/03/20 07:19:54;;;;;;;;;;;4.20;79.80;;;;;;4992536;28;19910;-58
2021/03/20 07:22:27;;;;;;;;;;;4.20;79.70;;;;;;4992692;28;19932;-56
2021/03/20 07:24:53;;;;;;;;;;;4.30;79.70;;;;;;5007656;28;20203;-58
2021/03/20 07:27:21;;;;;;;;;;;4.30;79.60;;;;;;4997417;28;20078;-57
2021/03/20 07:29:50;;;;;;;;;;;4.20;79.50;;;;;;4990150;28;20288;-55
2021/03/20 07:32:17;;;;;;;;;;;4.30;79.60;;;;;;4992142;28;20005;-59
2021/03/20 07:34:43;;;;;;;;;;;4.30;79.50;;;;;;4992285;28;19913;-57
2021/03/20 07:37:12;;;;;;;;;;;4.30;79.50;;;;;;4992368;28;19910;-56
2021/03/20 07:39:42;;;;;;;;;;;4.30;79.40;;;;;;5001417;28;19980;-58
2021/03/20 07:42:22;;;;;;;;;;;4.30;79.30;;;;;;4996414;28;20016;-56
2021/03/20 07:44:56;;;;;;;;;;;4.30;79.50;;;;;;5000298;28;19919;-58
2021/03/20 07:47:28;;;;;;;;;;;4.30;79.50;;;;;;4992247;28;20438;-58
2021/03/20 07:50:12;;;;;;;;;;;4.30;79.30;;;;;;5005128;28;19924;-56
2021/03/20 07:52:38;;;;;;;;;;;4.30;79.20;;;;;;4992412;28;19914;-56
2021/03/20 07:55:03;;;;;;;;;;;4.30;79.30;;;;;;5003079;28;19913;-57
2021/03/20 07:57:29;;;;;;;;;;;4.30;79.40;;;;;;5006579;28;20004;-55
2021/03/20 07:59:54;;;;;;;;;;;4.30;79.50;;;;;;5001778;28;19910;-59
2021/03/20 08:02:30;;;;;;;;;;;4.30;79.50;;;;;;5000093;28;20004;-56
2021/03/20 08:05:00;;;;;;;;;;;4.30;79.40;;;;;;5007443;28;20076;-56
2021/03/20 08:07:47;;;;;;;;;;;4.30;79.40;;;;;;5000807;28;20327;-57
2021/03/20 08:10:14;;;;;;;;;;;4.30;79.40;;;;;;4980854;28;19910;-58
2021/03/20 08:12:51;;;;;;;;;;;4.30;79.30;;;;;;4991376;28;19910;-55
2021/03/20 08:15:18;;;;;;;;;;;4.30;79.30;;;;;;5006856;28;19910;-55
2021/03/20 08:17:43;;;;;;;;;;;4.50;79.30;;;;;;5002978;28;20428;-58
2021/03/20 08:20:13;;;;;;;;;;;4.30;79.10;;;;;;4989804;28;20049;-57
2021/03/20 08:22:47;;;;;;;;;;;4.30;79.10;;;;;;4990375;28;20365;-58
2021/03/20 08:25:22;;;;;;;;;;;4.30;79.00;;;;;;5002285;28;19989;-56
2021/03/20 08:28:26;;;;;;;;;;;4.30;79.00;;;;;;4989316;28;19925;-59
2021/03/20 08:31:05;;;;;;;;;;;4.30;79.00;;;;;;5007705;28;19937;-58
2021/03/20 08:33:36;;;;;;;;;;;4.30;79.10;;;;;;5004492;28;19972;-55
2021/03/20 08:36:05;;;;;;;;;;;4.30;79.00;;;;;;4995553;28;19996;-59
2021/03/20 08:38:40;;;;;;;;;;;4.30;79.00;;;;;;4990400;28;20345;-56
2021/03/20 08:41:12;;;;;;;;;;;4.30;79.00;;;;;;5004526;28;19925;-56
2021/03/20 08:43:50;;;;;;;;;;;4.30;79.00;;;;;;5005986;28;19918;-56
2021/03/20 08:46:26;;;;;;;;;;;4.20;78.80;;;;;;4989460;28;20284;-56
2021/03/20 08:49:15;;;;;;;;;;;4.20;78.90;;;;;;4990261;28;20364;-58
2021/03/20 08:51:46;;;;;;;;;;;4.30;78.90;;;;;;4980859;28;19910;-59
2021/03/20 08:54:12;;;;;;;;;;;4.30;78.80;;;;;;5003649;28;19949;-56
2021/03/20 08:56:51;;;;;;;;;;;4.30;78.80;;;;;;4988446;28;19964;-57
2021/03/20 08:59:40;;;;;;;;;;;4.30;78.80;;;;;;4984723;28;20513;-59
2021/03/20 09:02:24;;;;;;;;;;;4.30;78.70;;;;;;4988157;28;19932;-58
2021/03/20 09:04:57;;;;;;;;;;;4.30;78.60;;;;;;4988320;28;19965;-58
2021/03/20 09:07:24;;;;;;;;;;;4.30;78.30;;;;;;5003959;28;19968;-57
2021/03/20 09:09:51;;;;;;;;;;;4.30;78.10;;;;;;4986676;28;20381;-56
2021/03/20 09:12:17;;;;;;;;;;;4.30;78.10;;;;;;5001865;28;19941;-59
2021/03/20 09:14:43;;;;;;;;;;;4.30;78.00;;;;;;5003067;28;19913;-57
2021/03/20 09:17:13;;;;;;;;;;;4.40;78.00;;;;;;4985622;28;19921;-58
2021/03/20 09:19:40;;;;;;;;;;;4.30;77.70;;;;;;5003152;28;19921;-55
2021/03/20 09:22:07;;;;;;;;;;;4.40;77.70;;;;;;5007164;28;19921;-58
2021/03/20 09:24:32;;;;;;;;;;;4.40;77.70;;;;;;4990787;28;19922;-55
2021/03/20 09:26:58;;;;;;;;;;;4.40;77.30;;;;;;5005890;28;19929;-59
2021/03/20 09:29:26;;;;;;;;;;;4.40;77.30;;;;;;4992330;28;19922;-58
2021/03/20 09:31:54;;;;;;;;;;;4.40;77.50;;;;;;5000519;28;19913;-57
2021/03/20 09:34:34;;;;;;;;;;;4.40;77.30;;;;;;4990439;28;19977;-55
2021/03/20 09:37:04;;;;;;;;;;;4.40;77.50;;;;;;4992757;28;19922;-58
2021/03/20 09:39:43;;;;;;;;;;;4.40;77.40;;;;;;5006577;28;19913;-57
2021/03/20 09:42:24;;;;;;;;;;;4.40;77.20;;;;;;5006667;28;19917;-56
2021/03/20 09:44:49;;;;;;;;;;;4.50;77.20;;;;;;4992741;28;19914;-57
2021/03/20 09:47:28;;;;;;;;;;;4.50;77.30;;;;;;4992103;28;19942;-57
2021/03/20 09:49:54;;;;;;;;;;;4.50;77.20;;;;;;5004755;28;19918;-58
2021/03/20 09:52:29;;;;;;;;;;;4.60;76.80;;;;;;5006873;28;19980;-58
2021/03/20 09:54:55;;;;;;;;;;;4.60;76.70;;;;;;4991119;28;20029;-58
2021/03/20 09:57:27;;;;;;;;;;;4.60;76.70;;;;;;4992610;28;19917;-55
2021/03/20 09:59:52;;;;;;;;;;;4.60;76.60;;;;;;4990949;28;20004;-58
2021/03/20 10:02:21;;;;;;;;;;;4.60;76.40;;;;;;5006799;28;20021;-57
2021/03/20 10:04:56;;;;;;;;;;;4.60;76.40;;;;;;4991880;28;19914;-58
2021/03/20 10:07:22;;;;;;;;;;;4.60;76.10;;;;;;4988839;28;19936;-58
2021/03/20 10:09:50;;;;;;;;;;;4.70;76.00;;;;;;4993665;28;20613;-58
2021/03/20 10:12:20;;;;;;;;;;;4.70;75.10;;;;;;4992355;28;19917;-56
2021/03/20 10:15:04;;;;;;;;;;;4.70;74.80;;;;;;5006787;28;19914;-59
2021/03/20 10:17:30;;;;;;;;;;;4.70;74.90;;;;;;4989707;28;19944;-56
2021/03/20 10:20:05;;;;;;;;;;;4.70;75.50;;;;;;5005929;28;20001;-57
2021/03/20 10:22:34;;;;;;;;;;;4.80;75.10;;;;;;4992212;28;19918;-58
2021/03/20 10:25:00;;;;;;;;;;;4.80;75.00;;;;;;5007034;28;19920;-58
2021/03/20 10:27:30;;;;;;;;;;;4.80;74.80;;;;;;4992733;28;19914;-58
2021/03/20 10:29:55;;;;;;;;;;;4.80;74.80;;;;;;4991671;28;19914;-58
2021/03/20 10:32:22;;;;;;;;;;;4.80;74.60;;;;;;5005333;28;19960;-59
2021/03/20 10:34:49;;;;;;;;;;;4.80;74.60;;;;;;4992049;28;19918;-57
2021/03/20 10:37:15;;;;;;;;;;;4.80;74.50;;;;;;5005308;28;20543;-56
2021/03/20 10:39:42;;;;;;;;;;;4.80;74.60;;;;;;5007882;28;19914;-56
2021/03/20 10:42:24;;;;;;;;;;;4.80;74.60;;;;;;4987479;28;19965;-58
2021/03/20 10:44:54;;;;;;;;;;;4.80;74.80;;;;;;5001816;28;19921;-58
2021/03/20 10:47:27;;;;;;;;;;;4.90;74.50;;;;;;5002431;28;20059;-58
2021/03/20 10:49:57;;;;;;;;;;;4.90;74.00;;;;;;5006647;28;19971;-56
2021/03/20 10:52:26;;;;;;;;;;;4.90;73.40;;;;;;4992650;28;19914;-57
2021/03/20 10:54:52;;;;;;;;;;;4.90;73.40;;;;;;5005445;28;19997;-56
2021/03/20 10:57:19;;;;;;;;;;;5.00;73.50;;;;;;4984561;28;20017;-57
2021/03/20 10:59:45;;;;;;;;;;;5.00;73.60;;;;;;5005471;28;19917;-55
2021/03/20 11:02:20;;;;;;;;;;;5.00;73.30;;;;;;5003875;28;20029;-55
2021/03/20 11:04:46;;;;;;;;;;;5.10;73.10;;;;;;5008724;28;19921;-57
2021/03/20 11:07:16;;;;;;;;;;;5.10;72.90;;;;;;4991758;28;19918;-55
2021/03/20 11:09:41;;;;;;;;;;;5.10;72.90;;;;;;4992059;28;19921;-59
2021/03/20 11:12:09;;;;;;;;;;;5.10;72.70;;;;;;4989038;28;19918;-58
2021/03/20 11:14:51;;;;;;;;;;;5.10;72.10;;;;;;5002855;28;19941;-57
2021/03/20 11:17:23;;;;;;;;;;;5.10;71.90;;;;;;4991400;28;19972;-59
2021/03/20 11:19:50;;;;;;;;;;;5.10;71.60;;;;;;5007294;28;19920;-57
2021/03/20 11:22:31;;;;;;;;;;;5.10;71.80;;;;;;5009964;28;19940;-59
2021/03/20 11:24:57;;;;;;;;;;;5.10;71.70;;;;;;5007262;28;20387;-58
2021/03/20 11:27:33;;;;;;;;;;;5.10;71.40;;;;;;4986801;28;19969;-59
2021/03/20 11:30:00;;;;;;;;;;;5.10;71.60;;;;;;4987813;28;19914;-59
2021/03/20 11:32:30;;;;;;;;;;;5.10;71.50;;;;;;5006228;28;20369;-56
2021/03/20 11:35:00;;;;;;;;;;;5.10;71.80;;;;;;5006908;28;19920;-55
2021/03/20 11:37:25;;;;;;;;;;;5.20;71.80;;;;;;5003797;28;20369;-58
2021/03/20 11:39:55;;;;;;;;;;;5.20;71.30;;;;;;5004729;28;19921;-55
2021/03/20 11:42:21;;;;;;;;;;;5.20;71.40;;;;;;5006320;28;20302;-56
2021/03/20 11:44:49;;;;;;;;;;;5.20;71.50;;;;;;4993339;28;19922;-56
2021/03/20 11:47:18;;;;;;;;;;;5.20;71.10;;;;;;4998292;28;20396;-58
2021/03/20 11:49:44;;;;;;;;;;;5.30;70.80;;;;;;5001329;28;19968;-57
2021/03/20 11:52:20;;;;;;;;;;;5.30;70.70;;;;;;4995767;28;19921;-56
2021/03/20 11:54:46;;;;;;;;;;;5.20;70.80;;;;;;4990908;28;19926;-58
2021/03/20 11:57:20;;;;;;;;;;;5.30;70.00;;;;;;4991489;28;20049;-58
2021/03/20 11:59:46;;;;;;;;;;;5.40;70.10;;;;;;4990490;28;21565;-58
2021/03/20 12:02:24;;;;;;;;;;;5.40;69.90;;;;;;4988514;28;20089;-57
2021/03/20 12:05:05;;;;;;;;;;;5.40;69.10;;;;;;4988762;28;19929;-56
2021/03/20 12:07:31;;;;;;;;;;;5.50;68.70;;;;;;5003685;28;19918;-59
2021/03/20 12:10:07;;;;;;;;;;;5.50;68.90;;;;;;4991327;28;20434;-59
2021/03/20 12:12:42;;;;;;;;;;;5.50;68.60;;;;;;5004089;28;19913;-56
2021/03/20 12:15:20;;;;;;;;;;;5.60;68.10;;;;;;4989928;28;19925;-56
2021/03/20 12:17:46;;;;;;;;;;;5.50;68.40;;;;;;5005485;28;19924;-57
2021/03/20 12:20:18;;;;;;;;;;;5.60;68.60;;;;;;5007012;28;20357;-56
2021/03/20 12:22:50;;;;;;;;;;;5.60;68.50;;;;;;4991008;28;20009;-57
2021/03/20 12:25:22;;;;;;;;;;;5.60;68.30;;;;;;4987503;28;19921;-57
2021/03/20 12:27:47;;;;;;;;;;;5.60;68.50;;;;;;4990299;28;20541;-57
2021/03/20 12:30:27;;;;;;;;;;;5.60;68.40;;;;;;4999809;28;19914;-57
2021/03/20 12:32:53;;;;;;;;;;;5.70;68.10;;;;;;5003464;28;19953;-57
2021/03/20 12:35:18;;;;;;;;;;;5.70;68.20;;;;;;5002991;28;19914;-58
2021/03/20 12:37:44;;;;;;;;;;;5.70;67.40;;;;;;4987137;28;19976;-58
2021/03/20 12:40:10;;;;;;;;;;;5.70;67.60;;;;;;4989691;28;20391;-55
2021/03/20 12:42:35;;;;;;;;;;;5.70;67.60;;;;;;5002238;28;19924;-55
2021/03/20 12:45:01;;;;;;;;;;;5.70;67.70;;;;;;4989325;28;19918;-58
2021/03/20 12:47:26;;;;;;;;;;;5.90;67.40;;;;;;4989607;28;19971;-56
2021/03/20 12:49:52;;;;;;;;;;;5.80;67.50;;;;;;4986498;28;20292;-59
2021/03/20 12:52:20;;;;;;;;;;;5.80;66.40;;;;;;4987705;28;19972;-58
2021/03/20 12:54:48;;;;;;;;;;;5.90;66.50;;;;;;4988897;28;19914;-58
2021/03/20 12:57:18;;;;;;;;;;;5.90;66.30;;;;;;5002620;28;20068;-59
2021/03/20 12:59:44;;;;;;;;;;;5.90;65.40;;;;;;4987907;28;19914;-55
2021/03/20 13:02:11;;;;;;;;;;;5.90;65.20;;;;;;4993396;28;19925;-56
2021/03/20 13:04:37;;;;;;;;;;;5.90;65.10;;;;;;4989702;28;19964;-58
2021/03/20 13:07:02;;;;;;;;;;;5.90;64.90;;;;;;4990074;28;19961;-56
2021/03/20 13:09:27;;;;;;;;;;;6.00;64.70;;;;;;4989228;28;19925;-56
2021/03/20 13:11:54;;;;;;;;;;;6.00;64.70;;;;;;4988286;28;19917;-56
2021/03/20 13:14:19;;;;;;;;;;;6.00;64.60;;;;;;4989815;28;20361;-56
2021/03/20 13:16:45;;;;;;;;;;;6.00;64.20;;;;;;4990051;28;19929;-56
2021/03/20 13:19:10;;;;;;;;;;;6.00;64.30;;;;;;4988896;28;20364;-58
2021/03/20 13:21:36;;;;;;;;;;;6.00;63.20;;;;;;4989047;28;19961;-56
2021/03/20 13:24:03;;;;;;;;;;;6.10;62.00;;;;;;5004183;28;19914;-58
2021/03/20 13:26:29;;;;;;;;;;;6.00;60.70;;;;;;4989756;28;19920;-57
2021/03/20 13:28:54;;;;;;;;;;;6.10;61.90;;;;;;5005045;28;19922;-58
2021/03/20 13:31:20;;;;;;;;;;;6.00;61.70;;;;;;4989473;28;19918;-56
2021/03/20 13:33:45;;;;;;;;;;;6.00;61.00;;;;;;4989375;28;19916;-57
2021/03/20 13:36:11;;;;;;;;;;;6.00;60.90;;;;;;4987918;28;19910;-60
2021/03/20 13:38:37;;;;;;;;;;;6.00;60.60;;;;;;4982922;28;19917;-58
2021/03/20 13:41:02;;;;;;;;;;;6.10;60.90;;;;;;4989067;28;20329;-56
2021/03/20 13:43:28;;;;;;;;;;;6.10;60.10;;;;;;4990347;28;19918;-55
2021/03/20 13:45:53;;;;;;;;;;;6.10;60.70;;;;;;5004876;28;19914;-58
2021/03/20 13:48:19;;;;;;;;;;;6.10;60.50;;;;;;4989071;28;19913;-57
2021/03/20 13:50:44;;;;;;;;;;;6.20;60.00;;;;;;5003653;28;20445;-58
2021/03/20 13:53:11;;;;;;;;;;;6.20;59.70;;;;;;4987814;28;19932;-56
2021/03/20 13:55:36;;;;;;;;;;;6.20;59.60;;;;;;4989170;28;20336;-56
2021/03/20 13:58:02;;;;;;;;;;;6.20;59.80;;;;;;4994120;28;19918;-57
2021/03/20 14:00:27;;;;;;;;;;;6.30;60.30;;;;;;4985239;28;20312;-58
2021/03/20 14:02:53;;;;;;;;;;;6.30;60.30;;;;;;5001587;28;19933;-59
2021/03/20 14:05:18;;;;;;;;;;;6.30;60.60;;;;;;5000925;28;19925;-56
2021/03/20 14:07:44;;;;;;;;;;;6.30;60.40;;;;;;4984163;28;19961;-56
2021/03/20 14:10:14;;;;;;;;;;;6.30;60.70;;;;;;4988390;28;19961;-59
2021/03/20 14:12:40;;;;;;;;;;;6.40;60.80;;;;;;4999400;28;19963;-57
2021/03/20 14:15:06;;;;;;;;;;;6.30;60.50;;;;;;4996906;28;19953;-58
2021/03/20 14:17:31;;;;;;;;;;;6.40;60.80;;;;;;4990279;28;19914;-59
2021/03/20 14:19:57;;;;;;;;;;;6.40;60.70;;;;;;4991360;28;20272;-56
2021/03/20 14:22:23;;;;;;;;;;;6.40;61.10;;;;;;5006722;28;20184;-56
2021/03/20 14:24:48;;;;;;;;;;;6.40;61.00;;;;;;4992078;28;19925;-58
2021/03/20 14:27:14;;;;;;;;;;;6.50;61.00;;;;;;4989359;28;19924;-57
2021/03/20 14:29:39;;;;;;;;;;;6.50;61.10;;;;;;5003025;28;19917;-56
2021/03/20 14:32:05;;;;;;;;;;;6.50;61.20;;;;;;5005011;28;20357;-57
2021/03/20 14:34:30;;;;;;;;;;;6.50;61.00;;;;;;4986016;28;20041;-58
2021/03/20 14:36:56;;;;;;;;;;;6.60;61.10;;;;;;4991688;28;20432;-58
2021/03/20 14:39:21;;;;;;;;;;;6.60;61.50;;;;;;4986350;28;19921;-58
2021/03/20 14:41:48;;;;;;;;;;;6.60;61.60;;;;;;4988636;28;19976;-60
2021/03/20 14:44:14;;;;;;;;;;;6.60;61.20;;;;;;4990149;28;19914;-56